sensor_id;sensor_type;location;lat;lon;timestamp;P1;durP1;ratioP1;P2;durP2;ratioP2
9904;SDS011;4991;43.566;27.820;2023-03-01T00:02:05;0.10;;;0.10;;
9904;SDS011;4991;43.566;27.820;2023-03-01T00:04:31;0.07;;;0.07;;
9904;SDS011;4991;43.566;27.820;2023-03-01T00:06:56;0.10;;;0.10;;
9904;SDS011;4991;43.566;27.820;2023-03-01T00:09:22;0.10;;;0.10;;
9904;SDS011;4991;43.566;27.820;2023-03-01T00:11:48;0.00;;;0.00;;
9904;SDS011;4991;43.566;27.820;2023-03-01T00:14:15;0.10;;;0.10;;
9904;SDS011;4991;43.566;27.820;2023-03-01T00:16:44;0.10;;;0.10;;
9904;SDS011;4991;43.566;27.820;2023-03-01T00:19:14;0.10;;;0.10;;
9904;SDS011;4991;43.566;27.820;2023-03-01T00:21:41;0.10;;;0.10;;
9904;SDS011;4991;43.566;27.820;2023-03-01T00:24:07;0.00;;;0.00;;
9904;SDS011;4991;43.566;27.820;2023-03-01T00:26:34;0.10;;;0.10;;
9904;SDS011;4991;43.566;27.820;2023-03-01T00:28:59;0.10;;;0.10;;
9904;SDS011;4991;43.566;27.820;2023-03-01T00:31:27;0.10;;;0.10;;
9904;SDS011;4991;43.566;27.820;2023-03-01T00:33:55;0.10;;;0.10;;
9904;SDS011;4991;43.566;27.820;2023-03-01T00:36:22;0.10;;;0.10;;
9904;SDS011;4991;43.566;27.820;2023-03-01T00:38:49;0.10;;;0.10;;
9904;SDS011;4991;43.566;27.820;2023-03-01T00:41:16;0.10;;;0.10;;
9904;SDS011;4991;43.566;27.820;2023-03-01T00:43:42;0.00;;;0.00;;
9904;SDS011;4991;43.566;27.820;2023-03-01T00:46:10;0.20;;;0.20;;
9904;SDS011;4991;43.566;27.820;2023-03-01T00:48:40;0.10;;;0.10;;
9904;SDS011;4991;43.566;27.820;2023-03-01T00:51:10;0.10;;;0.10;;
9904;SDS011;4991;43.566;27.820;2023-03-01T00:53:37;0.10;;;0.10;;
9904;SDS011;4991;43.566;27.820;2023-03-01T00:56:04;0.10;;;0.10;;
9904;SDS011;4991;43.566;27.820;2023-03-01T00:58:31;0.00;;;0.00;;
9904;SDS011;4991;43.566;27.820;2023-03-01T01:00:58;0.00;;;0.00;;
9904;SDS011;4991;43.566;27.820;2023-03-01T01:03:24;0.20;;;0.20;;
9904;SDS011;4991;43.566;27.820;2023-03-01T01:05:50;0.10;;;0.10;;
9904;SDS011;4991;43.566;27.820;2023-03-01T01:08:17;0.00;;;0.00;;
9904;SDS011;4991;43.566;27.820;2023-03-01T01:10:44;0.10;;;0.10;;
9904;SDS011;4991;43.566;27.820;2023-03-01T01:13:11;0.30;;;0.30;;
9904;SDS011;4991;43.566;27.820;2023-03-01T01:15:37;0.10;;;0.10;;
9904;SDS011;4991;43.566;27.820;2023-03-01T01:18:02;0.10;;;0.10;;
9904;SDS011;4991;43.566;27.820;2023-03-01T01:20:28;0.10;;;0.10;;
9904;SDS011;4991;43.566;27.820;2023-03-01T01:22:54;0.10;;;0.10;;
9904;SDS011;4991;43.566;27.820;2023-03-01T01:25:20;0.10;;;0.10;;
9904;SDS011;4991;43.566;27.820;2023-03-01T01:27:45;0.10;;;0.10;;
9904;SDS011;4991;43.566;27.820;2023-03-01T01:30:11;0.10;;;0.10;;
9904;SDS011;4991;43.566;27.820;2023-03-01T01:32:37;0.10;;;0.10;;
9904;SDS011;4991;43.566;27.820;2023-03-01T01:35:03;0.00;;;0.00;;
9904;SDS011;4991;43.566;27.820;2023-03-01T01:37:28;0.10;;;0.10;;
9904;SDS011;4991;43.566;27.820;2023-03-01T01:39:58;0.10;;;0.10;;
9904;SDS011;4991;43.566;27.820;2023-03-01T01:42:25;0.10;;;0.10;;
9904;SDS011;4991;43.566;27.820;2023-03-01T01:47:55;0.10;;;0.10;;
9904;SDS011;4991;43.566;27.820;2023-03-01T01:50:25;0.10;;;0.10;;
9904;SDS011;4991;43.566;27.820;2023-03-01T01:52:51;0.03;;;0.03;;
9904;SDS011;4991;43.566;27.820;2023-03-01T01:55:21;0.07;;;0.07;;
9904;SDS011;4991;43.566;27.820;2023-03-01T01:57:51;0.20;;;0.20;;
9904;SDS011;4991;43.566;27.820;2023-03-01T02:00:25;0.10;;;0.10;;
9904;SDS011;4991;43.566;27.820;2023-03-01T02:02:59;0.10;;;0.10;;
9904;SDS011;4991;43.566;27.820;2023-03-01T02:08:19;0.10;;;0.10;;
9904;SDS011;4991;43.566;27.820;2023-03-01T02:10:46;0.17;;;0.17;;
9904;SDS011;4991;43.566;27.820;2023-03-01T02:13:14;0.97;;;0.97;;
9904;SDS011;4991;43.566;27.820;2023-03-01T02:15:40;0.10;;;0.10;;
9904;SDS011;4991;43.566;27.820;2023-03-01T02:18:07;0.10;;;0.10;;
9904;SDS011;4991;43.566;27.820;2023-03-01T02:20:35;0.10;;;0.10;;
9904;SDS011;4991;43.566;27.820;2023-03-01T02:23:03;0.10;;;0.10;;
9904;SDS011;4991;43.566;27.820;2023-03-01T02:28:36;0.03;;;0.03;;
9904;SDS011;4991;43.566;27.820;2023-03-01T02:31:04;0.10;;;0.10;;
9904;SDS011;4991;43.566;27.820;2023-03-01T02:33:50;0.10;;;0.10;;
9904;SDS011;4991;43.566;27.820;2023-03-01T02:36:19;0.10;;;0.10;;
9904;SDS011;4991;43.566;27.820;2023-03-01T02:38:48;0.00;;;0.00;;
9904;SDS011;4991;43.566;27.820;2023-03-01T02:41:17;0.10;;;0.10;;
9904;SDS011;4991;43.566;27.820;2023-03-01T02:43:44;0.00;;;0.00;;
9904;SDS011;4991;43.566;27.820;2023-03-01T02:46:18;0.10;;;0.10;;
9904;SDS011;4991;43.566;27.820;2023-03-01T02:48:49;0.10;;;0.10;;
9904;SDS011;4991;43.566;27.820;2023-03-01T02:51:34;0.13;;;0.13;;
9904;SDS011;4991;43.566;27.820;2023-03-01T02:56:49;0.03;;;0.03;;
9904;SDS011;4991;43.566;27.820;2023-03-01T02:59:22;0.00;;;0.00;;
9904;SDS011;4991;43.566;27.820;2023-03-01T03:01:52;0.10;;;0.10;;
9904;SDS011;4991;43.566;27.820;2023-03-01T03:04:18;0.63;;;0.63;;
9904;SDS011;4991;43.566;27.820;2023-03-01T03:06:49;0.00;;;0.00;;
9904;SDS011;4991;43.566;27.820;2023-03-01T03:09:16;0.10;;;0.10;;
9904;SDS011;4991;43.566;27.820;2023-03-01T03:11:43;0.10;;;0.10;;
9904;SDS011;4991;43.566;27.820;2023-03-01T03:14:12;0.10;;;0.10;;
9904;SDS011;4991;43.566;27.820;2023-03-01T03:16:40;0.00;;;0.00;;
9904;SDS011;4991;43.566;27.820;2023-03-01T03:19:16;0.10;;;0.10;;
9904;SDS011;4991;43.566;27.820;2023-03-01T03:21:43;0.10;;;0.10;;
9904;SDS011;4991;43.566;27.820;2023-03-01T03:24:09;0.10;;;0.10;;
9904;SDS011;4991;43.566;27.820;2023-03-01T03:26:34;0.00;;;0.00;;
9904;SDS011;4991;43.566;27.820;2023-03-01T03:29:00;0.00;;;0.00;;
9904;SDS011;4991;43.566;27.820;2023-03-01T03:31:26;0.10;;;0.10;;
9904;SDS011;4991;43.566;27.820;2023-03-01T03:33:52;0.20;;;0.20;;
9904;SDS011;4991;43.566;27.820;2023-03-01T03:36:18;0.10;;;0.10;;
9904;SDS011;4991;43.566;27.820;2023-03-01T03:38:46;0.10;;;0.10;;
9904;SDS011;4991;43.566;27.820;2023-03-01T03:41:13;0.10;;;0.10;;
9904;SDS011;4991;43.566;27.820;2023-03-01T03:43:40;0.07;;;0.07;;
9904;SDS011;4991;43.566;27.820;2023-03-01T03:46:08;0.10;;;0.10;;
9904;SDS011;4991;43.566;27.820;2023-03-01T03:48:38;0.10;;;0.10;;
9904;SDS011;4991;43.566;27.820;2023-03-01T03:51:06;0.20;;;0.20;;
9904;SDS011;4991;43.566;27.820;2023-03-01T03:53:32;0.10;;;0.10;;
9904;SDS011;4991;43.566;27.820;2023-03-01T03:55:58;0.10;;;0.10;;
9904;SDS011;4991;43.566;27.820;2023-03-01T03:58:24;0.00;;;0.00;;
9904;SDS011;4991;43.566;27.820;2023-03-01T04:00:51;0.10;;;0.10;;
9904;SDS011;4991;43.566;27.820;2023-03-01T04:03:19;0.10;;;0.10;;
9904;SDS011;4991;43.566;27.820;2023-03-01T04:05:45;0.10;;;0.10;;
9904;SDS011;4991;43.566;27.820;2023-03-01T04:08:12;0.10;;;0.10;;
9904;SDS011;4991;43.566;27.820;2023-03-01T04:10:45;0.10;;;0.10;;
9904;SDS011;4991;43.566;27.820;2023-03-01T04:13:13;0.10;;;0.10;;
9904;SDS011;4991;43.566;27.820;2023-03-01T04:15:41;0.10;;;0.10;;
9904;SDS011;4991;43.566;27.820;2023-03-01T04:18:14;0.10;;;0.10;;
9904;SDS011;4991;43.566;27.820;2023-03-01T04:20:41;0.10;;;0.10;;
9904;SDS011;4991;43.566;27.820;2023-03-01T04:23:11;0.00;;;0.00;;
9904;SDS011;4991;43.566;27.820;2023-03-01T04:25:55;0.10;;;0.10;;
9904;SDS011;4991;43.566;27.820;2023-03-01T04:31:05;0.07;;;0.07;;
9904;SDS011;4991;43.566;27.820;2023-03-01T04:33:58;0.10;;;0.10;;
9904;SDS011;4991;43.566;27.820;2023-03-01T04:36:25;0.10;;;0.10;;
9904;SDS011;4991;43.566;27.820;2023-03-01T04:38:52;0.10;;;0.10;;
9904;SDS011;4991;43.566;27.820;2023-03-01T04:41:19;0.10;;;0.10;;
9904;SDS011;4991;43.566;27.820;2023-03-01T04:43:46;0.10;;;0.10;;
9904;SDS011;4991;43.566;27.820;2023-03-01T04:46:15;0.10;;;0.10;;
9904;SDS011;4991;43.566;27.820;2023-03-01T04:48:43;0.03;;;0.03;;
9904;SDS011;4991;43.566;27.820;2023-03-01T04:51:10;0.03;;;0.03;;
9904;SDS011;4991;43.566;27.820;2023-03-01T04:53:38;0.10;;;0.10;;
9904;SDS011;4991;43.566;27.820;2023-03-01T04:56:05;0.10;;;0.10;;
9904;SDS011;4991;43.566;27.820;2023-03-01T04:58:31;0.10;;;0.10;;
9904;SDS011;4991;43.566;27.820;2023-03-01T05:00:57;0.10;;;0.10;;
9904;SDS011;4991;43.566;27.820;2023-03-01T05:03:23;0.10;;;0.10;;
9904;SDS011;4991;43.566;27.820;2023-03-01T05:05:50;0.10;;;0.10;;
9904;SDS011;4991;43.566;27.820;2023-03-01T05:08:17;0.10;;;0.10;;
9904;SDS011;4991;43.566;27.820;2023-03-01T05:10:45;0.10;;;0.10;;
9904;SDS011;4991;43.566;27.820;2023-03-01T05:13:15;0.10;;;0.10;;
9904;SDS011;4991;43.566;27.820;2023-03-01T05:15:46;0.03;;;0.03;;
9904;SDS011;4991;43.566;27.820;2023-03-01T05:18:23;0.10;;;0.10;;
9904;SDS011;4991;43.566;27.820;2023-03-01T05:20:51;0.10;;;0.10;;
9904;SDS011;4991;43.566;27.820;2023-03-01T05:23:24;0.03;;;0.03;;
9904;SDS011;4991;43.566;27.820;2023-03-01T05:25:50;0.10;;;0.10;;
9904;SDS011;4991;43.566;27.820;2023-03-01T05:28:19;0.10;;;0.10;;
9904;SDS011;4991;43.566;27.820;2023-03-01T05:30:46;0.00;;;0.00;;
9904;SDS011;4991;43.566;27.820;2023-03-01T05:33:12;0.10;;;0.10;;
9904;SDS011;4991;43.566;27.820;2023-03-01T05:35:43;0.13;;;0.13;;
9904;SDS011;4991;43.566;27.820;2023-03-01T05:38:10;0.13;;;0.13;;
9904;SDS011;4991;43.566;27.820;2023-03-01T05:40:38;0.10;;;0.10;;
9904;SDS011;4991;43.566;27.820;2023-03-01T05:43:05;0.10;;;0.10;;
9904;SDS011;4991;43.566;27.820;2023-03-01T05:45:31;0.10;;;0.10;;
9904;SDS011;4991;43.566;27.820;2023-03-01T05:48:00;0.00;;;0.00;;
9904;SDS011;4991;43.566;27.820;2023-03-01T05:50:26;0.10;;;0.10;;
9904;SDS011;4991;43.566;27.820;2023-03-01T05:52:58;0.10;;;0.10;;
9904;SDS011;4991;43.566;27.820;2023-03-01T05:55:25;0.10;;;0.10;;
9904;SDS011;4991;43.566;27.820;2023-03-01T05:57:51;0.20;;;0.20;;
9904;SDS011;4991;43.566;27.820;2023-03-01T06:00:18;0.17;;;0.17;;
9904;SDS011;4991;43.566;27.820;2023-03-01T06:02:45;0.10;;;0.10;;
9904;SDS011;4991;43.566;27.820;2023-03-01T06:05:11;0.10;;;0.10;;
9904;SDS011;4991;43.566;27.820;2023-03-01T06:07:38;0.00;;;0.00;;
9904;SDS011;4991;43.566;27.820;2023-03-01T06:10:04;0.10;;;0.10;;
9904;SDS011;4991;43.566;27.820;2023-03-01T06:12:34;0.10;;;0.10;;
9904;SDS011;4991;43.566;27.820;2023-03-01T06:15:02;0.10;;;0.10;;
9904;SDS011;4991;43.566;27.820;2023-03-01T06:17:30;0.00;;;0.00;;
9904;SDS011;4991;43.566;27.820;2023-03-01T06:19:56;0.10;;;0.10;;
9904;SDS011;4991;43.566;27.820;2023-03-01T06:22:22;0.10;;;0.10;;
9904;SDS011;4991;43.566;27.820;2023-03-01T06:24:48;0.10;;;0.10;;
9904;SDS011;4991;43.566;27.820;2023-03-01T06:27:13;0.17;;;0.17;;
9904;SDS011;4991;43.566;27.820;2023-03-01T06:29:39;0.00;;;0.00;;
9904;SDS011;4991;43.566;27.820;2023-03-01T06:32:05;0.20;;;0.20;;
9904;SDS011;4991;43.566;27.820;2023-03-01T06:34:30;0.10;;;0.10;;
9904;SDS011;4991;43.566;27.820;2023-03-01T06:36:57;0.10;;;0.10;;
9904;SDS011;4991;43.566;27.820;2023-03-01T06:39:22;0.07;;;0.07;;
9904;SDS011;4991;43.566;27.820;2023-03-01T06:41:48;0.10;;;0.10;;
9904;SDS011;4991;43.566;27.820;2023-03-01T06:44:14;0.00;;;0.00;;
9904;SDS011;4991;43.566;27.820;2023-03-01T06:46:39;0.10;;;0.10;;
9904;SDS011;4991;43.566;27.820;2023-03-01T06:49:05;0.10;;;0.10;;
9904;SDS011;4991;43.566;27.820;2023-03-01T06:51:35;0.10;;;0.10;;
9904;SDS011;4991;43.566;27.820;2023-03-01T06:54:02;0.10;;;0.10;;
9904;SDS011;4991;43.566;27.820;2023-03-01T06:56:29;0.10;;;0.10;;
9904;SDS011;4991;43.566;27.820;2023-03-01T06:58:55;0.10;;;0.10;;
9904;SDS011;4991;43.566;27.820;2023-03-01T07:01:21;0.10;;;0.10;;
9904;SDS011;4991;43.566;27.820;2023-03-01T07:03:47;0.20;;;0.20;;
9904;SDS011;4991;43.566;27.820;2023-03-01T07:06:12;0.10;;;0.10;;
9904;SDS011;4991;43.566;27.820;2023-03-01T07:08:38;0.03;;;0.03;;
9904;SDS011;4991;43.566;27.820;2023-03-01T07:11:04;0.10;;;0.10;;
9904;SDS011;4991;43.566;27.820;2023-03-01T07:13:31;0.20;;;0.20;;
9904;SDS011;4991;43.566;27.820;2023-03-01T07:15:57;0.10;;;0.10;;
9904;SDS011;4991;43.566;27.820;2023-03-01T07:18:22;0.20;;;0.20;;
9904;SDS011;4991;43.566;27.820;2023-03-01T07:20:48;0.17;;;0.17;;
9904;SDS011;4991;43.566;27.820;2023-03-01T07:23:14;0.10;;;0.10;;
9904;SDS011;4991;43.566;27.820;2023-03-01T07:25:40;0.20;;;0.20;;
9904;SDS011;4991;43.566;27.820;2023-03-01T07:28:06;0.37;;;0.37;;
9904;SDS011;4991;43.566;27.820;2023-03-01T07:30:32;0.10;;;0.10;;
9904;SDS011;4991;43.566;27.820;2023-03-01T07:32:58;0.20;;;0.20;;
9904;SDS011;4991;43.566;27.820;2023-03-01T07:35:26;0.00;;;0.00;;
9904;SDS011;4991;43.566;27.820;2023-03-01T07:37:53;0.10;;;0.10;;
9904;SDS011;4991;43.566;27.820;2023-03-01T07:40:19;0.10;;;0.10;;
9904;SDS011;4991;43.566;27.820;2023-03-01T07:42:45;0.20;;;0.20;;
9904;SDS011;4991;43.566;27.820;2023-03-01T07:45:10;0.10;;;0.10;;
9904;SDS011;4991;43.566;27.820;2023-03-01T07:47:36;0.17;;;0.17;;
9904;SDS011;4991;43.566;27.820;2023-03-01T07:50:02;0.10;;;0.10;;
9904;SDS011;4991;43.566;27.820;2023-03-01T07:52:29;1.00;;;1.00;;
9904;SDS011;4991;43.566;27.820;2023-03-01T07:54:55;0.10;;;0.10;;
9904;SDS011;4991;43.566;27.820;2023-03-01T07:57:21;0.10;;;0.10;;
9904;SDS011;4991;43.566;27.820;2023-03-01T07:59:47;0.10;;;0.10;;
9904;SDS011;4991;43.566;27.820;2023-03-01T08:02:12;0.10;;;0.10;;
9904;SDS011;4991;43.566;27.820;2023-03-01T08:04:40;0.10;;;0.10;;
9904;SDS011;4991;43.566;27.820;2023-03-01T08:07:07;0.20;;;0.20;;
9904;SDS011;4991;43.566;27.820;2023-03-01T08:09:36;1.17;;;1.17;;
9904;SDS011;4991;43.566;27.820;2023-03-01T08:12:02;0.10;;;0.10;;
9904;SDS011;4991;43.566;27.820;2023-03-01T08:14:30;0.10;;;0.10;;
9904;SDS011;4991;43.566;27.820;2023-03-01T08:16:57;0.10;;;0.10;;
9904;SDS011;4991;43.566;27.820;2023-03-01T08:19:22;0.17;;;0.17;;
9904;SDS011;4991;43.566;27.820;2023-03-01T08:21:48;0.00;;;0.00;;
9904;SDS011;4991;43.566;27.820;2023-03-01T08:24:14;0.10;;;0.10;;
9904;SDS011;4991;43.566;27.820;2023-03-01T08:26:39;0.10;;;0.10;;
9904;SDS011;4991;43.566;27.820;2023-03-01T08:29:05;0.10;;;0.10;;
9904;SDS011;4991;43.566;27.820;2023-03-01T08:34:01;0.10;;;0.10;;
9904;SDS011;4991;43.566;27.820;2023-03-01T08:36:36;0.10;;;0.10;;
9904;SDS011;4991;43.566;27.820;2023-03-01T08:39:05;0.10;;;0.10;;
9904;SDS011;4991;43.566;27.820;2023-03-01T08:41:32;0.93;;;0.93;;
9904;SDS011;4991;43.566;27.820;2023-03-01T08:43:58;0.10;;;0.10;;
9904;SDS011;4991;43.566;27.820;2023-03-01T08:46:28;0.10;;;0.10;;
9904;SDS011;4991;43.566;27.820;2023-03-01T08:48:55;0.10;;;0.10;;
9904;SDS011;4991;43.566;27.820;2023-03-01T08:51:21;0.03;;;0.03;;
9904;SDS011;4991;43.566;27.820;2023-03-01T08:53:48;0.20;;;0.20;;
9904;SDS011;4991;43.566;27.820;2023-03-01T08:56:14;0.13;;;0.13;;
9904;SDS011;4991;43.566;27.820;2023-03-01T08:58:43;0.10;;;0.10;;
9904;SDS011;4991;43.566;27.820;2023-03-01T09:01:11;0.10;;;0.10;;
9904;SDS011;4991;43.566;27.820;2023-03-01T09:03:37;0.10;;;0.10;;
9904;SDS011;4991;43.566;27.820;2023-03-01T09:06:04;0.10;;;0.10;;
9904;SDS011;4991;43.566;27.820;2023-03-01T09:08:36;0.20;;;0.20;;
9904;SDS011;4991;43.566;27.820;2023-03-01T09:11:06;0.10;;;0.10;;
9904;SDS011;4991;43.566;27.820;2023-03-01T09:13:33;0.10;;;0.10;;
9904;SDS011;4991;43.566;27.820;2023-03-01T09:16:03;0.20;;;0.20;;
9904;SDS011;4991;43.566;27.820;2023-03-01T09:18:30;1.90;;;1.80;;
9904;SDS011;4991;43.566;27.820;2023-03-01T09:21:03;0.10;;;0.10;;
9904;SDS011;4991;43.566;27.820;2023-03-01T09:23:33;0.10;;;0.10;;
9904;SDS011;4991;43.566;27.820;2023-03-01T09:26:04;0.13;;;0.13;;
9904;SDS011;4991;43.566;27.820;2023-03-01T09:28:31;0.10;;;0.10;;
9904;SDS011;4991;43.566;27.820;2023-03-01T09:31:00;0.17;;;0.17;;
9904;SDS011;4991;43.566;27.820;2023-03-01T09:33:28;0.10;;;0.10;;
9904;SDS011;4991;43.566;27.820;2023-03-01T09:38:23;0.10;;;0.10;;
9904;SDS011;4991;43.566;27.820;2023-03-01T09:40:49;0.10;;;0.10;;
9904;SDS011;4991;43.566;27.820;2023-03-01T09:46:19;0.10;;;0.10;;
9904;SDS011;4991;43.566;27.820;2023-03-01T09:49:09;0.10;;;0.10;;
9904;SDS011;4991;43.566;27.820;2023-03-01T09:51:42;0.20;;;0.20;;
9904;SDS011;4991;43.566;27.820;2023-03-01T09:54:14;0.10;;;0.10;;
9904;SDS011;4991;43.566;27.820;2023-03-01T09:56:40;0.10;;;0.10;;
9904;SDS011;4991;43.566;27.820;2023-03-01T10:04:46;0.10;;;0.10;;
9904;SDS011;4991;43.566;27.820;2023-03-01T10:09:54;0.10;;;0.10;;
9904;SDS011;4991;43.566;27.820;2023-03-01T10:12:24;0.10;;;0.10;;
9904;SDS011;4991;43.566;27.820;2023-03-01T10:17:41;0.10;;;0.10;;
9904;SDS011;4991;43.566;27.820;2023-03-01T10:23:07;0.10;;;0.10;;
9904;SDS011;4991;43.566;27.820;2023-03-01T10:31:07;0.10;;;0.10;;
9904;SDS011;4991;43.566;27.820;2023-03-01T10:33:53;0.10;;;0.10;;
9904;SDS011;4991;43.566;27.820;2023-03-01T10:36:21;0.13;;;0.13;;
9904;SDS011;4991;43.566;27.820;2023-03-01T10:38:53;0.17;;;0.17;;
9904;SDS011;4991;43.566;27.820;2023-03-01T10:41:22;0.10;;;0.10;;
9904;SDS011;4991;43.566;27.820;2023-03-01T10:43:50;0.10;;;0.10;;
9904;SDS011;4991;43.566;27.820;2023-03-01T10:48:58;0.10;;;0.10;;
9904;SDS011;4991;43.566;27.820;2023-03-01T10:51:30;0.10;;;0.10;;
9904;SDS011;4991;43.566;27.820;2023-03-01T10:53:56;0.10;;;0.10;;
9904;SDS011;4991;43.566;27.820;2023-03-01T10:56:21;0.10;;;0.10;;
9904;SDS011;4991;43.566;27.820;2023-03-01T10:59:03;0.47;;;0.47;;
9904;SDS011;4991;43.566;27.820;2023-03-01T11:01:32;0.00;;;0.00;;
9904;SDS011;4991;43.566;27.820;2023-03-01T11:06:31;0.10;;;0.10;;
9904;SDS011;4991;43.566;27.820;2023-03-01T11:09:14;0.10;;;0.10;;
9904;SDS011;4991;43.566;27.820;2023-03-01T11:11:43;0.10;;;0.10;;
9904;SDS011;4991;43.566;27.820;2023-03-01T11:14:17;0.20;;;0.20;;
9904;SDS011;4991;43.566;27.820;2023-03-01T11:16:45;0.20;;;0.20;;
9904;SDS011;4991;43.566;27.820;2023-03-01T11:19:15;0.00;;;0.00;;
9904;SDS011;4991;43.566;27.820;2023-03-01T11:21:46;0.10;;;0.10;;
9904;SDS011;4991;43.566;27.820;2023-03-01T11:24:17;0.10;;;0.10;;
9904;SDS011;4991;43.566;27.820;2023-03-01T11:26:45;1.03;;;1.03;;
9904;SDS011;4991;43.566;27.820;2023-03-01T11:29:27;1.23;;;0.60;;
9904;SDS011;4991;43.566;27.820;2023-03-01T11:31:56;33.00;;;16.57;;
9904;SDS011;4991;43.566;27.820;2023-03-01T11:34:31;24.90;;;15.90;;
9904;SDS011;4991;43.566;27.820;2023-03-01T11:37:12;20.30;;;15.70;;
9904;SDS011;4991;43.566;27.820;2023-03-01T11:39:51;28.47;;;17.73;;
9904;SDS011;4991;43.566;27.820;2023-03-01T11:42:25;37.37;;;18.20;;
9904;SDS011;4991;43.566;27.820;2023-03-01T11:45:02;23.83;;;16.13;;
9904;SDS011;4991;43.566;27.820;2023-03-01T11:47:53;31.80;;;19.63;;
9904;SDS011;4991;43.566;27.820;2023-03-01T11:50:30;22.23;;;16.40;;
9904;SDS011;4991;43.566;27.820;2023-03-01T12:04:18;22.27;;;15.87;;
9904;SDS011;4991;43.566;27.820;2023-03-01T12:06:49;21.33;;;15.10;;
9904;SDS011;4991;43.566;27.820;2023-03-01T12:09:29;20.53;;;14.97;;
9904;SDS011;4991;43.566;27.820;2023-03-01T12:40:33;21.50;;;15.13;;
9904;SDS011;4991;43.566;27.820;2023-03-01T12:42:55;24.07;;;16.60;;
9904;SDS011;4991;43.566;27.820;2023-03-01T12:51:26;30.47;;;19.43;;
9904;SDS011;4991;43.566;27.820;2023-03-01T12:53:55;26.20;;;18.83;;
9904;SDS011;4991;43.566;27.820;2023-03-01T12:56:24;23.07;;;17.13;;
9904;SDS011;4991;43.566;27.820;2023-03-01T12:59:04;27.60;;;17.77;;
9904;SDS011;4991;43.566;27.820;2023-03-01T13:15:42;30.83;;;20.20;;
9904;SDS011;4991;43.566;27.820;2023-03-01T13:20:30;27.70;;;19.13;;
9904;SDS011;4991;43.566;27.820;2023-03-01T13:33:47;34.73;;;17.50;;
9904;SDS011;4991;43.566;27.820;2023-03-01T13:52:32;29.90;;;15.40;;
9904;SDS011;4991;43.566;27.820;2023-03-01T13:57:41;21.00;;;15.33;;
9904;SDS011;4991;43.566;27.820;2023-03-01T14:03:18;23.47;;;14.50;;
9904;SDS011;4991;43.566;27.820;2023-03-01T14:06:01;23.23;;;16.13;;
9904;SDS011;4991;43.566;27.820;2023-03-01T14:08:34;23.57;;;16.13;;
9904;SDS011;4991;43.566;27.820;2023-03-01T14:19:23;43.37;;;18.50;;
9904;SDS011;4991;43.566;27.820;2023-03-01T14:24:49;20.93;;;15.53;;
9904;SDS011;4991;43.566;27.820;2023-03-01T14:27:17;39.37;;;17.63;;
9904;SDS011;4991;43.566;27.820;2023-03-01T14:29:43;29.87;;;17.17;;
9904;SDS011;4991;43.566;27.820;2023-03-01T14:32:20;25.97;;;16.00;;
9904;SDS011;4991;43.566;27.820;2023-03-01T14:34:50;25.97;;;15.63;;
9904;SDS011;4991;43.566;27.820;2023-03-01T14:37:26;26.07;;;17.77;;
9904;SDS011;4991;43.566;27.820;2023-03-01T14:39:53;41.03;;;20.37;;
9904;SDS011;4991;43.566;27.820;2023-03-01T14:42:20;29.47;;;18.10;;
9904;SDS011;4991;43.566;27.820;2023-03-01T14:44:49;75.87;;;21.13;;
9904;SDS011;4991;43.566;27.820;2023-03-01T14:47:23;32.80;;;15.87;;
9904;SDS011;4991;43.566;27.820;2023-03-01T14:50:19;43.50;;;18.80;;
9904;SDS011;4991;43.566;27.820;2023-03-01T14:52:46;45.27;;;17.50;;
9904;SDS011;4991;43.566;27.820;2023-03-01T14:55:21;38.20;;;17.93;;
9904;SDS011;4991;43.566;27.820;2023-03-01T14:58:11;28.27;;;17.60;;
9904;SDS011;4991;43.566;27.820;2023-03-01T15:00:49;29.07;;;16.40;;
9904;SDS011;4991;43.566;27.820;2023-03-01T15:03:23;23.77;;;16.23;;
9904;SDS011;4991;43.566;27.820;2023-03-01T15:05:56;24.13;;;16.87;;
9904;SDS011;4991;43.566;27.820;2023-03-01T15:08:23;25.73;;;17.97;;
9904;SDS011;4991;43.566;27.820;2023-03-01T15:10:58;26.17;;;16.43;;
9904;SDS011;4991;43.566;27.820;2023-03-01T15:13:30;31.33;;;17.60;;
9904;SDS011;4991;43.566;27.820;2023-03-01T15:18:36;28.70;;;16.43;;
9904;SDS011;4991;43.566;27.820;2023-03-01T15:21:06;32.10;;;16.87;;
9904;SDS011;4991;43.566;27.820;2023-03-01T15:23:55;22.67;;;14.00;;
9904;SDS011;4991;43.566;27.820;2023-03-01T15:26:30;27.40;;;14.07;;
9904;SDS011;4991;43.566;27.820;2023-03-01T15:28:59;24.80;;;14.07;;
9904;SDS011;4991;43.566;27.820;2023-03-01T15:31:27;20.33;;;15.07;;
9904;SDS011;4991;43.566;27.820;2023-03-01T15:34:40;21.07;;;14.97;;
9904;SDS011;4991;43.566;27.820;2023-03-01T15:37:02;28.17;;;15.63;;
9904;SDS011;4991;43.566;27.820;2023-03-01T15:39:35;24.03;;;16.43;;
9904;SDS011;4991;43.566;27.820;2023-03-01T15:42:35;36.70;;;18.80;;
9904;SDS011;4991;43.566;27.820;2023-03-01T15:45:37;38.73;;;19.90;;
9904;SDS011;4991;43.566;27.820;2023-03-01T15:47:40;28.13;;;18.73;;
9904;SDS011;4991;43.566;27.820;2023-03-01T15:50:18;37.83;;;19.47;;
9904;SDS011;4991;43.566;27.820;2023-03-01T15:52:48;42.93;;;21.33;;
9904;SDS011;4991;43.566;27.820;2023-03-01T15:55:21;43.27;;;24.30;;
9904;SDS011;4991;43.566;27.820;2023-03-01T15:57:49;42.77;;;26.53;;
9904;SDS011;4991;43.566;27.820;2023-03-01T16:00:26;40.83;;;24.30;;
9904;SDS011;4991;43.566;27.820;2023-03-01T16:02:51;32.53;;;22.40;;
9904;SDS011;4991;43.566;27.820;2023-03-01T16:07:48;31.00;;;21.57;;
9904;SDS011;4991;43.566;27.820;2023-03-01T16:10:15;32.83;;;19.87;;
9904;SDS011;4991;43.566;27.820;2023-03-01T16:12:41;34.30;;;19.17;;
9904;SDS011;4991;43.566;27.820;2023-03-01T16:15:17;32.57;;;18.03;;
9904;SDS011;4991;43.566;27.820;2023-03-01T16:17:45;30.17;;;18.33;;
9904;SDS011;4991;43.566;27.820;2023-03-01T16:20:11;28.90;;;18.70;;
9904;SDS011;4991;43.566;27.820;2023-03-01T16:22:37;34.17;;;19.30;;
9904;SDS011;4991;43.566;27.820;2023-03-01T16:25:02;28.47;;;19.27;;
9904;SDS011;4991;43.566;27.820;2023-03-01T16:27:28;31.93;;;19.83;;
9904;SDS011;4991;43.566;27.820;2023-03-01T16:29:54;27.83;;;18.27;;
9904;SDS011;4991;43.566;27.820;2023-03-01T16:32:20;33.10;;;19.37;;
9904;SDS011;4991;43.566;27.820;2023-03-01T16:34:45;27.50;;;18.50;;
9904;SDS011;4991;43.566;27.820;2023-03-01T16:37:14;41.03;;;20.90;;
9904;SDS011;4991;43.566;27.820;2023-03-01T16:39:41;31.73;;;20.20;;
9904;SDS011;4991;43.566;27.820;2023-03-01T16:42:07;29.33;;;18.77;;
9904;SDS011;4991;43.566;27.820;2023-03-01T16:44:32;36.10;;;18.13;;
9904;SDS011;4991;43.566;27.820;2023-03-01T16:46:58;32.83;;;19.37;;
9904;SDS011;4991;43.566;27.820;2023-03-01T16:49:24;25.40;;;18.50;;
9904;SDS011;4991;43.566;27.820;2023-03-01T16:51:49;41.73;;;20.70;;
9904;SDS011;4991;43.566;27.820;2023-03-01T16:54:15;31.60;;;19.63;;
9904;SDS011;4991;43.566;27.820;2023-03-01T16:56:40;41.23;;;22.13;;
9904;SDS011;4991;43.566;27.820;2023-03-01T16:59:06;32.67;;;21.63;;
9904;SDS011;4991;43.566;27.820;2023-03-01T17:01:32;28.90;;;20.57;;
9904;SDS011;4991;43.566;27.820;2023-03-01T17:04:04;35.03;;;21.33;;
9904;SDS011;4991;43.566;27.820;2023-03-01T17:06:30;30.77;;;21.63;;
9904;SDS011;4991;43.566;27.820;2023-03-01T17:08:58;36.70;;;21.00;;
9904;SDS011;4991;43.566;27.820;2023-03-01T17:11:24;27.53;;;20.07;;
9904;SDS011;4991;43.566;27.820;2023-03-01T17:13:51;36.17;;;24.10;;
9904;SDS011;4991;43.566;27.820;2023-03-01T17:16:17;34.53;;;21.93;;
9904;SDS011;4991;43.566;27.820;2023-03-01T17:18:44;37.33;;;24.33;;
9904;SDS011;4991;43.566;27.820;2023-03-01T17:21:10;38.03;;;21.90;;
9904;SDS011;4991;43.566;27.820;2023-03-01T17:23:38;29.03;;;21.47;;
9904;SDS011;4991;43.566;27.820;2023-03-01T17:26:06;30.60;;;22.40;;
9904;SDS011;4991;43.566;27.820;2023-03-01T17:28:32;26.60;;;18.23;;
9904;SDS011;4991;43.566;27.820;2023-03-01T17:30:59;26.87;;;19.13;;
9904;SDS011;4991;43.566;27.820;2023-03-01T17:33:25;27.73;;;18.67;;
9904;SDS011;4991;43.566;27.820;2023-03-01T17:35:51;24.17;;;17.00;;
9904;SDS011;4991;43.566;27.820;2023-03-01T17:38:17;25.20;;;16.90;;
9904;SDS011;4991;43.566;27.820;2023-03-01T17:40:43;27.90;;;15.67;;
9904;SDS011;4991;43.566;27.820;2023-03-01T17:43:12;21.57;;;16.13;;